createdAt,value
2017-08-12T00:00:20.632Z,23.36
2017-08-12T00:01:29.488Z,23.39
2017-08-12T00:02:38.328Z,23.43
2017-08-12T00:03:47.177Z,23.44
2017-08-12T00:04:56.034Z,23.41
2017-08-12T00:06:04.885Z,23.44
2017-08-12T00:07:13.736Z,23.38
2017-08-12T00:08:22.589Z,23.41
2017-08-12T00:09:31.434Z,23.46
2017-08-12T00:10:40.599Z,23.38
2017-08-12T00:11:49.452Z,23.34
2017-08-12T00:12:58.312Z,23.41
2017-08-12T00:14:07.157Z,23.39
2017-08-12T00:15:16.008Z,23.41
2017-08-12T00:16:24.855Z,23.36
2017-08-12T00:17:33.708Z,23.38
2017-08-12T00:18:42.560Z,23.38
2017-08-12T00:19:51.413Z,23.35
2017-08-12T00:21:00.259Z,23.35
2017-08-12T00:22:09.116Z,23.38
2017-08-12T00:23:18.285Z,23.39
2017-08-12T00:24:27.131Z,23.46
2017-08-12T00:25:35.986Z,23.25
2017-08-12T00:26:44.835Z,23.35
2017-08-12T00:27:53.679Z,23.25
2017-08-12T00:29:02.539Z,23.34
2017-08-12T00:30:11.387Z,23.36
2017-08-12T00:31:20.239Z,23.38
2017-08-12T00:32:29.086Z,23.38
2017-08-12T00:33:37.936Z,23.39
2017-08-12T00:34:46.787Z,23.25
2017-08-12T00:35:55.639Z,23.39
2017-08-12T00:37:04.491Z,23.25
2017-08-12T00:38:13.344Z,23.27
2017-08-12T00:39:22.197Z,23.31
2017-08-12T00:40:31.043Z,23.35
2017-08-12T00:41:39.893Z,23.25
2017-08-12T00:42:48.743Z,23.36
2017-08-12T00:43:57.597Z,23.28
2017-08-12T00:45:06.443Z,23.24
2017-08-12T00:46:15.289Z,23.23
2017-08-12T00:47:24.143Z,23.23
2017-08-12T00:48:33.324Z,23.25
2017-08-12T00:49:42.178Z,23.23
2017-08-12T00:50:51.027Z,23.36
2017-08-12T00:52:02.945Z,23.34
2017-08-12T00:53:11.790Z,23.32
2017-08-12T00:54:20.684Z,23.31
2017-08-12T00:55:29.531Z,23.23
2017-08-12T00:56:38.701Z,23.24
2017-08-12T00:57:47.546Z,23.24
2017-08-12T00:58:56.399Z,23.23
2017-08-12T01:00:05.301Z,23.23
2017-08-12T01:01:14.469Z,23.19
2017-08-12T01:02:23.323Z,23.21
2017-08-12T01:03:32.170Z,23.19
2017-08-12T01:04:41.024Z,23.19
2017-08-12T01:05:50.505Z,23.15
2017-08-12T01:06:59.353Z,23.24
2017-08-12T01:08:08.205Z,23.21
2017-08-12T01:09:17.062Z,23.15
2017-08-12T01:10:25.921Z,23.21
2017-08-12T01:11:34.771Z,23.15
2017-08-12T01:12:43.617Z,23.08
2017-08-12T01:13:52.462Z,23.05
2017-08-12T01:15:01.308Z,23.06
2017-08-12T01:16:10.157Z,23.19
2017-08-12T01:17:19.013Z,23.18
2017-08-12T01:18:27.864Z,23.15
2017-08-12T01:19:36.718Z,23.18
2017-08-12T01:20:45.592Z,23.08
2017-08-12T01:21:54.433Z,23.18
2017-08-12T01:23:03.285Z,23.19
2017-08-12T01:24:12.134Z,23.09
2017-08-12T01:25:20.982Z,23.16
2017-08-12T01:26:29.829Z,23.06
2017-08-12T01:27:38.679Z,23.16
2017-08-12T01:28:47.528Z,23.05
2017-08-12T01:29:56.698Z,23.12
2017-08-12T01:31:05.552Z,23.12
2017-08-12T01:32:14.405Z,23.12
2017-08-12T01:33:23.252Z,23.08
2017-08-12T01:34:32.105Z,23.05
2017-08-12T01:35:41.263Z,23.01
2017-08-12T01:36:50.117Z,23.12
2017-08-12T01:37:58.969Z,23.06
2017-08-12T01:39:07.815Z,23.06
2017-08-12T01:40:16.666Z,23.03
2017-08-12T01:41:25.522Z,23.01
2017-08-12T01:42:34.689Z,23.06
2017-08-12T01:43:43.863Z,23.08
2017-08-12T01:44:52.710Z,22.97
2017-08-12T01:46:01.557Z,23.08
2017-08-12T01:47:10.722Z,23.09
2017-08-12T01:48:19.572Z,23.06
2017-08-12T01:49:28.424Z,23
2017-08-12T01:50:37.312Z,22.93
2017-08-12T01:51:46.190Z,23
2017-08-12T01:52:55.042Z,22.96
2017-08-12T01:54:03.897Z,22.97
2017-08-12T01:55:12.748Z,23.08
2017-08-12T01:56:21.597Z,22.98
2017-08-12T01:57:30.441Z,23
2017-08-12T01:58:39.291Z,23
2017-08-12T01:59:48.142Z,23
2017-08-12T02:00:56.988Z,23.01
2017-08-12T02:02:05.840Z,22.96
2017-08-12T02:03:14.698Z,23
2017-08-12T02:04:23.545Z,22.98
2017-08-12T02:05:32.389Z,22.94
2017-08-12T02:06:41.230Z,23.01
2017-08-12T02:07:50.079Z,22.98
2017-08-12T02:08:59.246Z,22.94
2017-08-12T02:10:08.100Z,23
2017-08-12T02:11:16.946Z,22.93
2017-08-12T02:12:25.796Z,23.05
2017-08-12T02:13:34.645Z,22.96
2017-08-12T02:14:43.493Z,22.9
2017-08-12T02:15:52.351Z,22.94
2017-08-12T02:17:01.512Z,22.9
2017-08-12T02:18:10.357Z,22.94
2017-08-12T02:19:19.210Z,22.94
2017-08-12T02:20:28.059Z,22.93
2017-08-12T02:21:36.912Z,22.87
2017-08-12T02:22:46.077Z,22.9
2017-08-12T02:23:54.931Z,23
2017-08-12T02:25:04.092Z,22.93
2017-08-12T02:26:12.941Z,22.87
2017-08-12T02:27:22.109Z,22.81
2017-08-12T02:28:30.956Z,22.93
2017-08-12T02:29:39.810Z,22.83
2017-08-12T02:30:48.658Z,22.9
2017-08-12T02:31:57.509Z,22.91
2017-08-12T02:33:06.678Z,22.88
2017-08-12T02:34:15.537Z,22.86
2017-08-12T02:35:24.384Z,22.86
2017-08-12T02:36:33.233Z,22.86
2017-08-12T02:37:42.110Z,22.88
2017-08-12T02:38:51.311Z,22.91
2017-08-12T02:40:00.171Z,22.83
2017-08-12T02:41:09.025Z,22.83
2017-08-12T02:42:17.869Z,22.81
2017-08-12T02:43:26.719Z,22.88
2017-08-12T02:44:35.587Z,22.82
2017-08-12T02:45:44.439Z,22.9
2017-08-12T02:46:53.598Z,22.82
2017-08-12T02:48:02.453Z,22.88
2017-08-12T02:49:11.616Z,22.88
2017-08-12T02:50:20.466Z,22.87
2017-08-12T02:51:29.324Z,22.83
2017-08-12T02:52:38.167Z,22.88
2017-08-12T02:53:47.017Z,22.9
2017-08-12T02:54:55.869Z,22.82
2017-08-12T02:56:04.720Z,22.87
2017-08-12T02:57:13.573Z,22.91
2017-08-12T02:58:22.422Z,22.86
2017-08-12T02:59:31.276Z,22.9
2017-08-12T03:00:40.119Z,22.82
2017-08-12T03:01:48.974Z,22.9
2017-08-12T03:02:57.820Z,22.86
2017-08-12T03:04:06.998Z,22.88
2017-08-12T03:05:15.846Z,22.91
2017-08-12T03:06:24.701Z,22.82
2017-08-12T03:07:33.548Z,22.88
2017-08-12T03:08:42.404Z,22.83
2017-08-12T03:09:51.288Z,22.87
2017-08-12T03:11:00.454Z,22.91
2017-08-12T03:12:09.296Z,22.88
2017-08-12T03:13:18.141Z,22.87
2017-08-12T03:14:27.320Z,22.87
2017-08-12T03:15:36.188Z,22.9
2017-08-12T03:16:45.036Z,22.88
2017-08-12T03:17:53.888Z,22.81
2017-08-12T03:19:02.740Z,22.88
2017-08-12T03:20:11.591Z,22.86
2017-08-12T03:21:20.434Z,22.88
2017-08-12T03:22:29.284Z,22.78
2017-08-12T03:23:38.448Z,22.9
2017-08-12T03:24:47.313Z,22.94
2017-08-12T03:25:56.168Z,22.81
2017-08-12T03:27:05.029Z,22.86
2017-08-12T03:28:13.875Z,22.73
2017-08-12T03:29:22.727Z,22.79
2017-08-12T03:30:31.583Z,22.73
2017-08-12T03:31:40.438Z,22.78
2017-08-12T03:32:49.284Z,22.88
2017-08-12T03:33:58.135Z,22.86
2017-08-12T03:35:06.980Z,22.79
2017-08-12T03:36:15.831Z,22.86
2017-08-12T03:37:24.680Z,22.79
2017-08-12T03:38:33.527Z,22.86
2017-08-12T03:39:42.382Z,22.71
2017-08-12T03:40:51.236Z,22.82
2017-08-12T03:42:00.081Z,22.78
2017-08-12T03:43:08.933Z,22.75
2017-08-12T03:44:18.100Z,22.73
2017-08-12T03:45:26.948Z,22.73
2017-08-12T03:46:35.796Z,22.79
2017-08-12T03:47:44.957Z,22.76
2017-08-12T03:48:53.798Z,22.75
2017-08-12T03:50:02.652Z,22.72
2017-08-12T03:51:11.530Z,22.71
2017-08-12T03:52:20.375Z,22.72
2017-08-12T03:53:29.228Z,22.73
2017-08-12T03:54:38.087Z,22.64
2017-08-12T03:55:46.931Z,22.71
2017-08-12T03:56:56.103Z,22.68
2017-08-12T03:58:04.980Z,22.69
2017-08-12T03:59:13.833Z,22.61
2017-08-12T04:00:22.675Z,22.61
2017-08-12T04:01:31.523Z,22.68
2017-08-12T04:02:40.688Z,22.63
2017-08-12T04:03:49.541Z,22.63
2017-08-12T04:04:58.398Z,22.69
2017-08-12T04:06:07.252Z,22.54
2017-08-12T04:07:16.419Z,22.56
2017-08-12T04:08:25.263Z,22.54
2017-08-12T04:09:34.111Z,22.57
2017-08-12T04:10:42.965Z,22.58
2017-08-12T04:11:51.813Z,22.63
2017-08-12T04:13:00.657Z,22.54
2017-08-12T04:14:09.539Z,22.58
2017-08-12T04:15:18.392Z,22.57
2017-08-12T04:16:27.237Z,22.57
2017-08-12T04:17:36.092Z,22.58
2017-08-12T04:18:44.936Z,22.6
2017-08-12T04:19:53.791Z,22.58
2017-08-12T04:21:02.948Z,22.58
2017-08-12T04:22:12.127Z,22.57
2017-08-12T04:23:20.985Z,22.6
2017-08-12T04:24:29.833Z,22.61
2017-08-12T04:25:38.689Z,22.5
2017-08-12T04:26:47.554Z,22.54
2017-08-12T04:27:56.411Z,22.58
2017-08-12T04:29:05.265Z,22.58
2017-08-12T04:30:14.120Z,22.54
2017-08-12T04:31:22.971Z,22.51
2017-08-12T04:32:31.818Z,22.46
2017-08-12T04:33:40.669Z,22.6
2017-08-12T04:34:49.528Z,22.54
2017-08-12T04:35:58.376Z,22.54
2017-08-12T04:37:07.224Z,22.51
2017-08-12T04:38:16.068Z,22.49
2017-08-12T04:39:24.920Z,22.54
2017-08-12T04:40:33.766Z,22.56
2017-08-12T04:41:42.611Z,22.49
2017-08-12T04:42:51.465Z,22.53
2017-08-12T04:44:00.312Z,22.43
2017-08-12T04:45:09.168Z,22.49
2017-08-12T04:46:18.013Z,22.5
2017-08-12T04:47:26.863Z,22.45
2017-08-12T04:48:35.730Z,22.5
2017-08-12T04:49:44.581Z,22.53
2017-08-12T04:50:53.433Z,22.5
2017-08-12T04:52:02.282Z,22.56
2017-08-12T04:53:11.133Z,22.49
2017-08-12T04:54:19.982Z,22.46
2017-08-12T04:55:28.837Z,22.43
2017-08-12T04:56:37.682Z,22.46
2017-08-12T04:57:46.525Z,22.49
2017-08-12T04:58:55.381Z,22.41
2017-08-12T05:00:04.228Z,22.49
2017-08-12T05:01:13.093Z,22.49
2017-08-12T05:02:21.948Z,22.39
2017-08-12T05:03:30.825Z,22.43
2017-08-12T05:04:39.991Z,22.43
2017-08-12T05:05:48.842Z,22.49
2017-08-12T05:06:57.699Z,22.49
2017-08-12T05:08:06.855Z,22.42
2017-08-12T05:09:15.709Z,22.45
2017-08-12T05:10:24.552Z,22.51
2017-08-12T05:11:34.036Z,22.49
2017-08-12T05:12:42.881Z,22.5
2017-08-12T05:13:51.729Z,22.51
2017-08-12T05:15:00.579Z,22.46
2017-08-12T05:16:09.426Z,22.39
2017-08-12T05:17:18.278Z,22.5
2017-08-12T05:18:27.128Z,22.36
2017-08-12T05:19:35.983Z,22.35
2017-08-12T05:20:44.826Z,22.45
2017-08-12T05:21:53.675Z,22.39
2017-08-12T05:23:02.520Z,22.41
2017-08-12T05:24:11.370Z,22.51
2017-08-12T05:25:20.217Z,22.36
2017-08-12T05:26:29.064Z,22.45
2017-08-12T05:27:37.915Z,22.39
2017-08-12T05:28:47.079Z,22.38
2017-08-12T05:29:55.929Z,22.38
2017-08-12T05:31:04.786Z,22.36
2017-08-12T05:32:13.633Z,22.45
2017-08-12T05:33:22.484Z,22.38
2017-08-12T05:34:31.334Z,22.36
2017-08-12T05:35:40.187Z,22.38
2017-08-12T05:36:49.031Z,22.38
2017-08-12T05:37:57.883Z,22.36
2017-08-12T05:39:06.738Z,22.38
2017-08-12T05:40:15.584Z,22.38
2017-08-12T05:41:24.436Z,22.34
2017-08-12T05:42:33.284Z,22.36
2017-08-12T05:43:42.140Z,22.31
2017-08-12T05:44:50.989Z,22.32
2017-08-12T05:45:59.835Z,22.31
2017-08-12T05:47:08.684Z,22.38
2017-08-12T05:48:17.537Z,22.36
2017-08-12T05:49:26.387Z,22.41
2017-08-12T05:50:35.233Z,22.36
2017-08-12T05:51:44.088Z,22.34
2017-08-12T05:52:52.936Z,22.39
2017-08-12T05:54:01.781Z,22.38
2017-08-12T05:55:10.631Z,22.35
2017-08-12T05:56:19.481Z,22.34
2017-08-12T05:57:28.327Z,22.27
2017-08-12T05:58:37.492Z,22.36
2017-08-12T05:59:46.348Z,22.36
2017-08-12T06:00:55.203Z,22.38
2017-08-12T06:02:04.371Z,22.38
2017-08-12T06:03:13.215Z,22.36
2017-08-12T06:04:22.061Z,22.41
2017-08-12T06:05:31.242Z,22.38
2017-08-12T06:06:40.093Z,22.35
2017-08-12T06:07:48.940Z,22.36
2017-08-12T06:08:57.800Z,22.38
2017-08-12T06:10:06.651Z,22.5
2017-08-12T06:11:15.499Z,22.34
2017-08-12T06:12:24.674Z,22.27
2017-08-12T06:13:33.522Z,22.39
2017-08-12T06:14:42.369Z,22.39
2017-08-12T06:15:51.536Z,22.38
2017-08-12T06:17:00.381Z,22.36
2017-08-12T06:18:09.224Z,22.31
2017-08-12T06:19:18.074Z,22.34
2017-08-12T06:20:26.924Z,22.35
2017-08-12T06:21:35.771Z,22.39
2017-08-12T06:22:44.618Z,22.38
2017-08-12T06:23:53.462Z,22.35
2017-08-12T06:25:02.314Z,22.29
2017-08-12T06:26:11.166Z,22.35
2017-08-12T06:27:20.014Z,22.41
2017-08-12T06:28:28.868Z,22.34
2017-08-12T06:29:37.733Z,22.34
2017-08-12T06:30:46.583Z,22.41
2017-08-12T06:31:55.434Z,22.39
2017-08-12T06:33:04.602Z,22.46
2017-08-12T06:34:13.769Z,22.49
2017-08-12T06:35:22.616Z,22.42
2017-08-12T06:36:31.786Z,22.49
2017-08-12T06:37:40.634Z,22.51
2017-08-12T06:38:49.486Z,22.45
2017-08-12T06:39:58.651Z,22.51
2017-08-12T06:41:07.499Z,22.49
2017-08-12T06:42:16.348Z,22.43
2017-08-12T06:43:25.197Z,22.49
2017-08-12T06:44:34.049Z,22.51
2017-08-12T06:45:42.900Z,22.43
2017-08-12T06:46:52.382Z,22.49
2017-08-12T06:48:01.234Z,22.49
2017-08-12T06:49:10.078Z,22.51
2017-08-12T06:50:18.926Z,22.43
2017-08-12T06:51:27.776Z,22.42
2017-08-12T06:52:36.627Z,22.43
2017-08-12T06:53:45.800Z,22.46
2017-08-12T06:54:54.651Z,22.49
2017-08-12T06:56:03.497Z,22.53
2017-08-12T06:57:12.344Z,22.45
2017-08-12T06:58:21.195Z,22.43
2017-08-12T06:59:30.038Z,22.38
2017-08-12T07:00:38.885Z,22.5
2017-08-12T07:01:47.739Z,22.5
2017-08-12T07:02:56.588Z,22.46
2017-08-12T07:04:05.443Z,22.42
2017-08-12T07:05:14.286Z,22.39
2017-08-12T07:06:23.136Z,22.41
2017-08-12T07:07:31.987Z,22.35
2017-08-12T07:08:40.844Z,22.43
2017-08-12T07:09:49.694Z,22.42
2017-08-12T07:10:58.540Z,22.36
2017-08-12T07:12:07.708Z,22.45
2017-08-12T07:13:16.874Z,22.43
2017-08-12T07:14:25.731Z,22.41
2017-08-12T07:15:34.586Z,22.46
2017-08-12T07:16:43.428Z,22.45
2017-08-12T07:17:52.284Z,22.43
2017-08-12T07:19:01.131Z,22.41
2017-08-12T07:20:09.982Z,22.41
2017-08-12T07:21:18.829Z,22.41
2017-08-12T07:22:27.683Z,22.36
2017-08-12T07:23:36.530Z,22.34
2017-08-12T07:24:45.375Z,22.38
2017-08-12T07:25:54.221Z,22.38
2017-08-12T07:27:03.075Z,22.36
2017-08-12T07:28:11.926Z,22.39
2017-08-12T07:29:20.769Z,22.43
2017-08-12T07:30:29.619Z,22.39
2017-08-12T07:31:38.470Z,22.38
2017-08-12T07:32:47.325Z,22.39
2017-08-12T07:33:56.496Z,22.35
2017-08-12T07:35:05.343Z,22.38
2017-08-12T07:36:14.191Z,22.39
2017-08-12T07:37:23.030Z,22.35
2017-08-12T07:38:31.880Z,22.35
2017-08-12T07:39:40.732Z,22.38
2017-08-12T07:40:49.581Z,22.29
2017-08-12T07:41:58.425Z,22.29
2017-08-12T07:43:07.274Z,22.32
2017-08-12T07:44:16.119Z,22.29
2017-08-12T07:45:24.963Z,22.34
2017-08-12T07:46:33.810Z,22.31
2017-08-12T07:47:42.664Z,22.34
2017-08-12T07:48:51.833Z,22.29
2017-08-12T07:50:00.687Z,22.34
2017-08-12T07:51:09.874Z,22.39
2017-08-12T07:52:18.718Z,22.32
2017-08-12T07:53:27.571Z,22.27
2017-08-12T07:54:36.425Z,22.39
2017-08-12T07:55:45.273Z,22.27
2017-08-12T07:56:54.131Z,22.31
2017-08-12T07:58:02.976Z,22.31
2017-08-12T07:59:11.825Z,22.32
2017-08-12T08:00:20.678Z,22.34
2017-08-12T08:01:29.530Z,22.34
2017-08-12T08:02:38.371Z,22.31
2017-08-12T08:03:47.544Z,22.31
2017-08-12T08:04:56.393Z,22.34
2017-08-12T08:06:05.244Z,22.31
2017-08-12T08:07:14.411Z,22.31
2017-08-12T08:08:23.259Z,22.32
2017-08-12T08:09:32.102Z,22.32
2017-08-12T08:10:40.954Z,22.32
2017-08-12T08:11:49.802Z,22.27
2017-08-12T08:12:58.656Z,22.34
2017-08-12T08:14:07.509Z,22.35
2017-08-12T08:15:16.358Z,22.35
2017-08-12T08:16:25.197Z,22.29
2017-08-12T08:17:34.045Z,22.32
2017-08-12T08:18:42.894Z,22.35
2017-08-12T08:19:51.747Z,22.27
2017-08-12T08:21:00.596Z,22.34
2017-08-12T08:22:09.443Z,22.38
2017-08-12T08:23:18.293Z,22.29
2017-08-12T08:24:27.137Z,22.31
2017-08-12T08:25:35.990Z,22.34
2017-08-12T08:26:44.842Z,22.31
2017-08-12T08:27:53.688Z,22.36
2017-08-12T08:29:02.535Z,22.29
2017-08-12T08:30:11.385Z,22.34
2017-08-12T08:31:20.237Z,22.36
2017-08-12T08:32:29.082Z,22.34
2017-08-12T08:33:37.933Z,22.36
2017-08-12T08:34:46.780Z,22.24
2017-08-12T08:35:55.633Z,22.31
2017-08-12T08:37:04.480Z,22.2
2017-08-12T08:38:13.335Z,22.32
2017-08-12T08:39:22.186Z,22.23
2017-08-12T08:40:31.031Z,22.2
2017-08-12T08:41:39.881Z,22.23
2017-08-12T08:42:48.731Z,22.21
2017-08-12T08:43:57.582Z,22.34
2017-08-12T08:45:06.434Z,22.32
2017-08-12T08:46:15.281Z,22.34
2017-08-12T08:47:24.477Z,22.26
2017-08-12T08:48:33.323Z,22.27
2017-08-12T08:49:42.170Z,22.23
2017-08-12T08:50:51.025Z,22.26
2017-08-12T08:51:59.877Z,22.23
2017-08-12T08:53:08.726Z,22.27
2017-08-12T08:54:17.577Z,22.17
2017-08-12T08:55:26.423Z,22.32
2017-08-12T08:56:35.274Z,22.38
2017-08-12T08:57:44.119Z,22.36
2017-08-12T08:58:52.976Z,22.32
2017-08-12T09:00:01.824Z,22.31
2017-08-12T09:01:10.669Z,22.31
2017-08-12T09:02:19.523Z,22.32
2017-08-12T09:03:28.685Z,22.34
2017-08-12T09:04:37.532Z,22.36
2017-08-12T09:05:46.378Z,22.38
2017-08-12T09:06:55.227Z,22.38
2017-08-12T09:08:04.393Z,22.38
2017-08-12T09:09:13.561Z,22.36
2017-08-12T09:10:22.447Z,22.36
2017-08-12T09:11:31.296Z,22.36
2017-08-12T09:12:40.150Z,22.31
2017-08-12T09:13:49.001Z,22.31
2017-08-12T09:14:57.843Z,22.31
2017-08-12T09:16:06.693Z,22.27
2017-08-12T09:17:15.544Z,22.32
2017-08-12T09:18:24.390Z,22.27
2017-08-12T09:19:33.241Z,22.38
2017-08-12T09:20:42.092Z,22.38
2017-08-12T09:21:50.941Z,22.31
2017-08-12T09:22:59.790Z,22.34
2017-08-12T09:24:08.645Z,22.38
2017-08-12T09:25:17.493Z,22.34
2017-08-12T09:26:26.342Z,22.36
2017-08-12T09:27:35.506Z,22.35
2017-08-12T09:28:44.359Z,22.38
2017-08-12T09:29:53.207Z,22.34
2017-08-12T09:31:02.376Z,22.36
2017-08-12T09:32:11.234Z,22.38
2017-08-12T09:33:20.084Z,22.36
2017-08-12T09:34:28.926Z,22.32
2017-08-12T09:35:37.775Z,22.43
2017-08-12T09:36:46.625Z,22.41
2017-08-12T09:37:55.473Z,22.38
2017-08-12T09:39:04.323Z,22.36
2017-08-12T09:40:13.175Z,22.36
2017-08-12T09:41:22.025Z,22.35
2017-08-12T09:42:30.869Z,22.34
2017-08-12T09:43:39.727Z,22.41
2017-08-12T09:44:48.585Z,22.41
2017-08-12T09:45:57.752Z,22.46
2017-08-12T09:47:06.602Z,22.38
2017-08-12T09:48:15.763Z,22.43
2017-08-12T09:49:24.615Z,22.42
2017-08-12T09:50:33.473Z,22.5
2017-08-12T09:51:42.642Z,22.46
2017-08-12T09:52:51.484Z,22.43
2017-08-12T09:54:00.967Z,22.45
2017-08-12T09:55:09.815Z,22.49
2017-08-12T09:56:18.668Z,22.49
2017-08-12T09:57:27.532Z,22.42
2017-08-12T09:58:36.382Z,22.53
2017-08-12T09:59:45.238Z,22.45
2017-08-12T10:00:54.088Z,22.5
2017-08-12T10:02:02.937Z,22.45
2017-08-12T10:03:11.788Z,22.46
2017-08-12T10:04:20.957Z,22.45
2017-08-12T10:05:29.812Z,22.53
2017-08-12T10:06:38.658Z,22.43
2017-08-12T10:07:47.511Z,22.42
2017-08-12T10:08:56.361Z,22.49
2017-08-12T10:10:05.212Z,22.5
2017-08-12T10:11:14.375Z,22.57
2017-08-12T10:12:23.542Z,22.43
2017-08-12T10:13:32.388Z,22.5
2017-08-12T10:14:41.237Z,22.53
2017-08-12T10:15:50.092Z,22.49
2017-08-12T10:16:59.251Z,22.49
2017-08-12T10:18:08.101Z,22.51
2017-08-12T10:19:16.952Z,22.49
2017-08-12T10:20:25.805Z,22.49
2017-08-12T10:21:34.658Z,22.51
2017-08-12T10:22:43.539Z,22.46
2017-08-12T10:23:52.395Z,22.51
2017-08-12T10:25:01.245Z,22.46
2017-08-12T10:26:10.098Z,22.42
2017-08-12T10:27:18.953Z,22.49
2017-08-12T10:28:27.803Z,22.53
2017-08-12T10:29:36.652Z,22.46
2017-08-12T10:30:45.503Z,22.43
2017-08-12T10:31:54.358Z,22.51
2017-08-12T10:33:03.210Z,22.54
2017-08-12T10:34:12.381Z,22.45
2017-08-12T10:35:21.547Z,22.51
2017-08-12T10:36:30.403Z,22.49
2017-08-12T10:37:39.252Z,22.46
2017-08-12T10:38:48.415Z,22.43
2017-08-12T10:39:57.258Z,22.51
2017-08-12T10:41:06.108Z,22.49
2017-08-12T10:42:14.959Z,22.51
2017-08-12T10:43:24.122Z,22.51
2017-08-12T10:44:32.977Z,22.45
2017-08-12T10:45:41.825Z,22.51
2017-08-12T10:46:50.687Z,22.49
2017-08-12T10:47:59.532Z,22.49
2017-08-12T10:49:08.387Z,22.5
2017-08-12T10:50:17.234Z,22.5
2017-08-12T10:51:26.082Z,22.5
2017-08-12T10:52:34.939Z,22.51
2017-08-12T10:53:43.790Z,22.51
2017-08-12T10:54:52.643Z,22.53
2017-08-12T10:56:01.495Z,22.49
2017-08-12T10:57:10.663Z,22.53
2017-08-12T10:58:19.516Z,22.49
2017-08-12T10:59:28.365Z,22.49
2017-08-12T11:00:37.213Z,22.57
2017-08-12T11:01:46.063Z,22.57
2017-08-12T11:02:54.916Z,22.54
2017-08-12T11:04:03.788Z,22.6
2017-08-12T11:05:12.636Z,22.57
2017-08-12T11:06:21.495Z,22.58
2017-08-12T11:07:30.344Z,22.57
2017-08-12T11:08:39.189Z,22.54
2017-08-12T11:09:48.041Z,22.63
2017-08-12T11:10:56.888Z,22.57
2017-08-12T11:12:05.732Z,22.68
2017-08-12T11:13:14.587Z,22.71
2017-08-12T11:14:23.438Z,22.69
2017-08-12T11:15:32.292Z,22.68
2017-08-12T11:16:41.141Z,22.71
2017-08-12T11:17:49.988Z,22.71
2017-08-12T11:18:58.865Z,22.58
2017-08-12T11:20:07.759Z,22.68
2017-08-12T11:21:16.613Z,22.57
2017-08-12T11:22:25.464Z,22.61
2017-08-12T11:23:34.312Z,22.68
2017-08-12T11:24:43.164Z,22.69
2017-08-12T11:25:52.012Z,22.64
2017-08-12T11:27:00.867Z,22.72
2017-08-12T11:28:09.718Z,22.69
2017-08-12T11:29:18.562Z,22.76
2017-08-12T11:30:27.417Z,22.75
2017-08-12T11:31:36.263Z,22.69
2017-08-12T11:32:45.130Z,22.73
2017-08-12T11:33:54.304Z,22.79
2017-08-12T11:35:03.168Z,22.68
2017-08-12T11:36:12.016Z,22.79
2017-08-12T11:37:20.869Z,22.72
2017-08-12T11:38:29.720Z,22.69
2017-08-12T11:39:38.572Z,22.78
2017-08-12T11:40:47.422Z,22.76
2017-08-12T11:41:56.277Z,22.73
2017-08-12T11:43:05.435Z,22.76
2017-08-12T11:44:14.288Z,22.76
2017-08-12T11:45:23.134Z,22.82
2017-08-12T11:46:32.310Z,22.75
2017-08-12T11:47:41.160Z,22.69
2017-08-12T11:48:50.009Z,22.75
2017-08-12T11:49:58.856Z,22.81
2017-08-12T11:51:07.706Z,22.81
2017-08-12T11:52:16.560Z,22.87
2017-08-12T11:53:25.404Z,22.88
2017-08-12T11:54:34.249Z,22.79
2017-08-12T11:55:43.097Z,22.86
2017-08-12T11:56:52.268Z,22.87
2017-08-12T11:58:01.120Z,22.81
2017-08-12T11:59:09.970Z,22.83
2017-08-12T12:00:18.829Z,22.81
2017-08-12T12:01:27.686Z,22.79
2017-08-12T12:02:36.535Z,22.79
2017-08-12T12:03:45.383Z,22.86
2017-08-12T12:04:54.233Z,22.71
2017-08-12T12:06:03.085Z,22.79
2017-08-12T12:07:11.929Z,22.9
2017-08-12T12:08:20.787Z,22.82
2017-08-12T12:09:29.638Z,22.82
2017-08-12T12:10:38.485Z,22.86
2017-08-12T12:11:47.343Z,22.78
2017-08-12T12:12:56.203Z,22.75
2017-08-12T12:14:05.048Z,22.78
2017-08-12T12:15:13.892Z,22.79
2017-08-12T12:16:22.744Z,22.81
2017-08-12T12:17:31.587Z,22.86
2017-08-12T12:18:40.430Z,22.86
2017-08-12T12:19:49.599Z,22.79
2017-08-12T12:20:58.457Z,22.82
2017-08-12T12:22:07.305Z,22.68
2017-08-12T12:23:16.158Z,22.79
2017-08-12T12:24:25.327Z,22.87
2017-08-12T12:25:34.489Z,22.82
2017-08-12T12:26:43.335Z,22.9
2017-08-12T12:27:52.190Z,22.79
2017-08-12T12:29:01.037Z,22.86
2017-08-12T12:30:09.916Z,22.82
2017-08-12T12:31:18.774Z,22.87
2017-08-12T12:32:27.629Z,22.87
2017-08-12T12:33:36.482Z,22.76
2017-08-12T12:34:45.332Z,22.82
2017-08-12T12:35:54.496Z,22.83
2017-08-12T12:37:03.345Z,22.81
2017-08-12T12:38:12.190Z,22.88
2017-08-12T12:39:21.053Z,22.86
2017-08-12T12:40:29.900Z,22.83
2017-08-12T12:41:38.798Z,22.81
2017-08-12T12:42:47.647Z,22.72
2017-08-12T12:43:56.509Z,22.76
2017-08-12T12:45:05.356Z,22.73
2017-08-12T12:46:14.210Z,22.79
2017-08-12T12:47:23.057Z,22.73
2017-08-12T12:48:31.907Z,22.81
2017-08-12T12:49:41.078Z,22.87
2017-08-12T12:50:49.927Z,22.87
2017-08-12T12:51:59.092Z,22.73
2017-08-12T12:53:08.267Z,22.82
2017-08-12T12:54:17.121Z,22.86
2017-08-12T12:55:25.969Z,22.79
2017-08-12T12:56:34.817Z,22.86
2017-08-12T12:57:43.668Z,22.76
2017-08-12T12:58:52.516Z,22.76
2017-08-12T13:00:01.365Z,22.87
2017-08-12T13:01:10.212Z,22.86
2017-08-12T13:02:19.060Z,22.82
2017-08-12T13:03:27.907Z,22.91
2017-08-12T13:04:36.771Z,22.82
2017-08-12T13:05:45.612Z,22.83
2017-08-12T13:06:54.462Z,22.83
2017-08-12T13:08:03.304Z,22.9
2017-08-12T13:09:12.469Z,22.91
2017-08-12T13:10:21.321Z,22.86
2017-08-12T13:11:30.174Z,22.86
2017-08-12T13:12:39.019Z,22.87
2017-08-12T13:13:47.867Z,22.83
2017-08-12T13:14:56.721Z,22.87
2017-08-12T13:16:05.579Z,22.86
2017-08-12T13:17:14.429Z,22.9
2017-08-12T13:18:23.277Z,22.86
2017-08-12T13:19:32.115Z,22.86
2017-08-12T13:20:40.968Z,22.86
2017-08-12T13:21:49.818Z,22.81
2017-08-12T13:22:58.697Z,22.88
2017-08-12T13:24:07.544Z,22.86
2017-08-12T13:25:16.396Z,22.86
2017-08-12T13:26:25.562Z,22.82
2017-08-12T13:27:34.422Z,22.88
2017-08-12T13:28:43.587Z,22.9
2017-08-12T13:29:52.432Z,22.83
2017-08-12T13:31:01.287Z,22.9
2017-08-12T13:32:10.139Z,22.87
2017-08-12T13:33:18.986Z,22.91
2017-08-12T13:34:27.835Z,22.88
2017-08-12T13:35:36.679Z,22.81
2017-08-12T13:36:45.539Z,22.87
2017-08-12T13:37:54.390Z,22.9
2017-08-12T13:39:03.237Z,22.9
2017-08-12T13:40:12.082Z,22.86
2017-08-12T13:41:20.929Z,22.86
2017-08-12T13:42:29.780Z,22.91
2017-08-12T13:43:38.627Z,22.83
2017-08-12T13:44:47.808Z,22.83
2017-08-12T13:45:56.969Z,22.82
2017-08-12T13:47:05.815Z,22.81
2017-08-12T13:48:14.676Z,22.87
2017-08-12T13:49:23.534Z,22.82
2017-08-12T13:50:32.390Z,22.81
2017-08-12T13:51:41.557Z,22.82
2017-08-12T13:52:50.420Z,22.94
2017-08-12T13:53:59.273Z,22.93
2017-08-12T13:55:08.438Z,22.91
2017-08-12T13:56:17.288Z,22.91
2017-08-12T13:57:26.135Z,22.9
2017-08-12T13:58:34.988Z,22.91
2017-08-12T13:59:43.835Z,22.88
2017-08-12T14:00:52.682Z,22.88
2017-08-12T14:02:01.533Z,22.87
2017-08-12T14:03:10.378Z,22.88
2017-08-12T14:04:19.226Z,22.87
2017-08-12T14:05:28.079Z,22.91
2017-08-12T14:06:36.930Z,22.79
2017-08-12T14:07:45.776Z,22.88
2017-08-12T14:08:54.620Z,22.91
2017-08-12T14:10:03.470Z,22.93
2017-08-12T14:11:12.328Z,22.83
2017-08-12T14:12:21.181Z,22.88
2017-08-12T14:13:30.034Z,22.87
2017-08-12T14:14:38.878Z,22.82
2017-08-12T14:15:47.728Z,22.86
2017-08-12T14:16:56.581Z,22.79
2017-08-12T14:18:05.434Z,22.86
2017-08-12T14:19:14.281Z,22.82
2017-08-12T14:20:23.140Z,22.82
2017-08-12T14:21:32.305Z,22.81
2017-08-12T14:22:41.156Z,22.88
2017-08-12T14:23:50.322Z,22.82
2017-08-12T14:24:59.169Z,22.9
2017-08-12T14:26:08.018Z,22.9
2017-08-12T14:27:16.871Z,22.87
2017-08-12T14:28:25.737Z,22.9
2017-08-12T14:29:34.588Z,22.87
2017-08-12T14:30:43.439Z,22.87
2017-08-12T14:31:52.287Z,22.83
2017-08-12T14:33:01.146Z,22.93
2017-08-12T14:34:09.995Z,22.9
2017-08-12T14:35:18.842Z,22.91
2017-08-12T14:36:27.688Z,22.9
2017-08-12T14:37:36.538Z,22.93
2017-08-12T14:38:45.391Z,22.9
2017-08-12T14:39:54.554Z,22.91
2017-08-12T14:41:03.410Z,22.83
2017-08-12T14:42:12.256Z,22.9
2017-08-12T14:43:21.113Z,22.83
2017-08-12T14:44:29.958Z,22.87
2017-08-12T14:45:38.799Z,22.79
2017-08-12T14:46:47.648Z,22.86
2017-08-12T14:47:56.508Z,22.91
2017-08-12T14:49:05.672Z,22.91
2017-08-12T14:50:14.523Z,22.93